createdAt,value
2018-07-24T00:00:14.949Z,16.53
2018-07-24T00:02:43.449Z,15.10
2018-07-24T00:05:11.899Z,15.93
2018-07-24T00:07:40.352Z,15.50
2018-07-24T00:10:08.900Z,17.60
2018-07-24T00:12:37.337Z,17.10
2018-07-24T00:15:06.397Z,16.50
2018-07-24T00:17:35.436Z,16.67
2018-07-24T00:20:04.589Z,18.50
2018-07-24T00:22:33.097Z,17.77
2018-07-24T00:25:01.230Z,18.00
2018-07-24T00:27:29.692Z,18.57
2018-07-24T00:29:58.161Z,18.07
2018-07-24T00:32:26.657Z,17.60
2018-07-24T00:34:55.109Z,18.23
2018-07-24T00:37:23.562Z,18.90
2018-07-24T00:39:52.013Z,17.67
2018-07-24T00:42:20.501Z,18.77
2018-07-24T00:44:48.973Z,17.00
2018-07-24T00:47:17.445Z,15.97
2018-07-24T00:49:45.882Z,18.33
2018-07-24T00:52:14.608Z,19.17
2018-07-24T00:54:43.055Z,17.53
2018-07-24T00:57:11.533Z,19.67
2018-07-24T00:59:40.001Z,18.03
2018-07-24T01:02:08.463Z,20.30
2018-07-24T01:04:36.905Z,16.70
2018-07-24T01:07:05.669Z,19.80
2018-07-24T01:09:34.154Z,19.13
2018-07-24T01:12:02.608Z,17.80
2018-07-24T01:14:31.561Z,19.90
2018-07-24T01:17:00.017Z,18.13
2018-07-24T01:19:28.454Z,18.23
2018-07-24T01:21:56.905Z,16.93
2018-07-24T01:24:25.361Z,19.80
2018-07-24T01:26:53.849Z,19.00
2018-07-24T01:29:22.335Z,18.27
2018-07-24T01:31:50.797Z,17.97
2018-07-24T01:34:19.244Z,17.47
2018-07-24T01:36:47.696Z,16.50
2018-07-24T01:39:16.131Z,16.50
2018-07-24T01:41:44.638Z,17.20
2018-07-24T01:44:13.074Z,16.97
2018-07-24T01:46:41.517Z,19.50
2018-07-24T01:49:09.945Z,17.97
2018-07-24T01:51:38.464Z,19.70
2018-07-24T01:54:06.894Z,17.37
2018-07-24T01:56:35.348Z,17.97
2018-07-24T01:59:03.797Z,18.50
2018-07-24T02:01:32.250Z,19.30
2018-07-24T02:04:00.672Z,17.73
2018-07-24T02:06:29.144Z,18.43
2018-07-24T02:08:57.584Z,18.60
2018-07-24T02:11:26.076Z,18.47
2018-07-24T02:13:54.556Z,18.27
2018-07-24T02:16:23.013Z,18.50
2018-07-24T02:18:51.452Z,18.30
2018-07-24T02:21:19.911Z,18.63
2018-07-24T02:23:48.373Z,18.77
2018-07-24T02:26:16.828Z,17.67
2018-07-24T02:28:45.252Z,18.33
2018-07-24T02:31:13.736Z,17.67
2018-07-24T02:33:42.169Z,20.37
2018-07-24T02:36:10.621Z,18.60
2018-07-24T02:38:39.053Z,19.87
2018-07-24T02:41:07.559Z,19.33
2018-07-24T02:43:36.013Z,20.20
2018-07-24T02:46:04.520Z,19.97
2018-07-24T02:48:32.981Z,19.87
2018-07-24T02:51:01.463Z,20.00
2018-07-24T02:53:29.926Z,19.40
2018-07-24T02:55:58.376Z,19.67
2018-07-24T02:58:26.803Z,19.50
2018-07-24T03:00:55.247Z,19.67
2018-07-24T03:03:23.752Z,19.13
2018-07-24T03:05:52.264Z,19.20
2018-07-24T03:08:20.723Z,18.27
2018-07-24T03:10:49.157Z,18.13
2018-07-24T03:13:17.688Z,19.90
2018-07-24T03:15:46.131Z,17.93
2018-07-24T03:18:14.587Z,15.93
2018-07-24T03:20:43.032Z,18.40
2018-07-24T03:23:11.497Z,17.57
2018-07-24T03:25:39.942Z,17.30
2018-07-24T03:28:08.409Z,18.83
2018-07-24T03:30:36.871Z,16.70
2018-07-24T03:33:05.331Z,15.80
2018-07-24T03:35:33.768Z,18.50
2018-07-24T03:38:02.219Z,17.80
2018-07-24T03:40:30.674Z,16.60
2018-07-24T03:42:59.120Z,17.83
2018-07-24T03:45:27.552Z,16.80
2018-07-24T03:47:56.001Z,17.83
2018-07-24T03:50:24.721Z,18.50
2018-07-24T03:52:53.190Z,16.20
2018-07-24T03:55:21.702Z,16.57
2018-07-24T03:57:50.224Z,17.40
2018-07-24T04:00:18.638Z,17.20
2018-07-24T04:02:47.110Z,17.23
2018-07-24T04:05:15.559Z,17.47
2018-07-24T04:07:44.054Z,17.30
2018-07-24T04:10:12.503Z,17.10
2018-07-24T04:12:41.052Z,17.57
2018-07-24T04:15:09.500Z,16.23
2018-07-24T04:17:37.959Z,16.80
2018-07-24T04:20:06.461Z,17.43
2018-07-24T04:22:34.926Z,16.90
2018-07-24T04:25:03.451Z,16.70
2018-07-24T04:27:31.945Z,15.63
2018-07-24T04:30:00.390Z,17.20
2018-07-24T04:32:29.085Z,16.77
2018-07-24T04:34:57.536Z,17.70
2018-07-24T04:37:25.982Z,16.50
2018-07-24T04:39:54.579Z,16.90
2018-07-24T04:42:22.980Z,17.20
2018-07-24T04:44:51.438Z,16.60
2018-07-24T04:47:19.912Z,16.40
2018-07-24T04:49:48.352Z,18.20
2018-07-24T04:52:16.863Z,18.37
2018-07-24T04:54:45.302Z,16.07
2018-07-24T04:57:13.445Z,16.40
2018-07-24T04:59:41.995Z,16.17
2018-07-24T05:02:10.460Z,15.90
2018-07-24T05:04:38.892Z,15.60
2018-07-24T05:07:07.600Z,17.10
2018-07-24T05:09:36.094Z,16.10
2018-07-24T05:12:04.537Z,17.07
2018-07-24T05:14:32.964Z,16.50
2018-07-24T05:17:01.441Z,16.43
2018-07-24T05:19:29.873Z,16.27
2018-07-24T05:21:58.346Z,17.07
2018-07-24T05:24:26.796Z,16.17
2018-07-24T05:26:55.800Z,16.43
2018-07-24T05:29:24.232Z,14.47
2018-07-24T05:31:52.709Z,15.63
2018-07-24T05:34:21.152Z,14.30
2018-07-24T05:36:49.585Z,14.83
2018-07-24T05:39:18.032Z,13.97
2018-07-24T05:41:46.483Z,11.47
2018-07-24T05:44:14.993Z,12.70
2018-07-24T05:46:43.454Z,13.20
2018-07-24T05:49:11.916Z,12.73
2018-07-24T05:51:40.412Z,11.67
2018-07-24T05:54:08.861Z,10.23
2018-07-24T05:56:37.349Z,10.00
2018-07-24T05:59:05.849Z,10.20
2018-07-24T06:01:34.330Z,9.80
2018-07-24T06:04:02.763Z,10.00
2018-07-24T06:06:31.665Z,8.73
2018-07-24T06:09:00.121Z,8.87
2018-07-24T06:11:28.594Z,9.70
2018-07-24T06:13:57.012Z,9.73
2018-07-24T06:16:25.473Z,8.50
2018-07-24T06:18:53.941Z,8.40
2018-07-24T06:21:22.449Z,8.90
2018-07-24T06:23:50.904Z,9.50
2018-07-24T06:26:19.337Z,8.33
2018-07-24T06:28:47.790Z,7.80
2018-07-24T06:31:16.347Z,7.57
2018-07-24T06:33:44.820Z,8.53
2018-07-24T06:36:13.273Z,7.73
2018-07-24T06:38:41.737Z,8.27
2018-07-24T06:41:10.190Z,7.97
2018-07-24T06:43:38.644Z,7.97
2018-07-24T06:46:07.110Z,9.03
2018-07-24T06:48:35.546Z,8.50
2018-07-24T06:51:04.042Z,8.83
2018-07-24T06:53:32.461Z,9.40
2018-07-24T06:56:00.890Z,7.93
2018-07-24T06:58:29.385Z,9.17
2018-07-24T07:00:57.833Z,9.50
2018-07-24T07:03:26.354Z,8.20
2018-07-24T07:05:54.806Z,6.40
2018-07-24T07:08:23.269Z,6.80
2018-07-24T07:10:51.809Z,7.87
2018-07-24T07:13:20.332Z,6.93
2018-07-24T07:15:48.807Z,7.07
2018-07-24T07:18:17.262Z,6.03
2018-07-24T07:20:45.725Z,7.43
2018-07-24T07:23:13.865Z,6.40
2018-07-24T07:25:42.329Z,7.47
2018-07-24T07:28:10.794Z,5.80
2018-07-24T07:30:39.225Z,6.20
2018-07-24T07:33:07.693Z,6.30
2018-07-24T07:35:36.204Z,6.00
2018-07-24T07:38:04.685Z,5.90
2018-07-24T07:40:33.157Z,6.70
2018-07-24T07:43:01.400Z,5.13
2018-07-24T07:45:29.863Z,5.70
2018-07-24T07:47:58.322Z,5.80
2018-07-24T07:50:26.795Z,5.27
2018-07-24T07:52:55.328Z,7.23
2018-07-24T07:55:23.793Z,4.90
2018-07-24T07:57:51.936Z,5.47
2018-07-24T08:00:20.433Z,4.90
2018-07-24T08:02:48.892Z,5.77
2018-07-24T08:05:17.438Z,4.77
2018-07-24T08:07:45.899Z,5.67
2018-07-24T08:10:14.380Z,5.03
2018-07-24T08:12:42.838Z,4.73
2018-07-24T08:15:11.317Z,4.87
2018-07-24T08:17:39.800Z,4.80
2018-07-24T08:20:07.936Z,4.50
2018-07-24T08:22:36.445Z,4.50
2018-07-24T08:25:05.196Z,4.17
2018-07-24T08:27:33.752Z,4.03
2018-07-24T08:30:01.926Z,4.50
2018-07-24T08:32:30.409Z,4.13
2018-07-24T08:34:58.869Z,4.07
2018-07-24T08:37:27.369Z,3.73
2018-07-24T08:39:55.948Z,4.00
2018-07-24T08:42:24.103Z,4.13
2018-07-24T08:44:52.617Z,4.30
2018-07-24T08:47:21.034Z,4.20
2018-07-24T08:49:49.140Z,4.07
2018-07-24T08:52:17.629Z,4.33
2018-07-24T08:54:46.358Z,4.10
2018-07-24T08:57:14.896Z,4.10
2018-07-24T08:59:43.002Z,3.60
2018-07-24T09:02:11.160Z,4.30
2018-07-24T09:04:39.620Z,3.53
2018-07-24T09:07:08.196Z,3.47
2018-07-24T09:09:36.650Z,3.57
2018-07-24T09:12:05.132Z,5.03
2018-07-24T09:14:33.573Z,5.37
2018-07-24T09:17:02.053Z,3.70
2018-07-24T09:19:30.502Z,3.83
2018-07-24T09:21:58.989Z,3.67
2018-07-24T09:24:27.509Z,3.80
2018-07-24T09:26:55.707Z,4.00
2018-07-24T09:29:24.145Z,3.40
2018-07-24T09:31:52.648Z,3.70
2018-07-24T09:34:21.109Z,3.70
2018-07-24T09:36:49.602Z,3.20
2018-07-24T09:39:18.081Z,4.10
2018-07-24T09:41:46.520Z,3.90
2018-07-24T09:44:14.962Z,3.40
2018-07-24T09:46:43.401Z,3.10
2018-07-24T09:49:11.849Z,3.67
2018-07-24T09:51:40.328Z,3.33
2018-07-24T09:54:08.801Z,4.03
2018-07-24T09:56:37.292Z,3.40
2018-07-24T09:59:05.779Z,3.60
2018-07-24T10:01:35.334Z,3.63
2018-07-24T10:04:04.486Z,3.03
2018-07-24T10:06:34.038Z,3.57
2018-07-24T10:09:02.570Z,3.80
2018-07-24T10:11:31.037Z,3.13
2018-07-24T10:13:59.522Z,3.40
2018-07-24T10:16:27.761Z,3.60
2018-07-24T10:18:56.144Z,3.70
2018-07-24T10:21:24.310Z,3.40
2018-07-24T10:23:52.778Z,3.70
2018-07-24T10:26:21.255Z,3.57
2018-07-24T10:28:49.686Z,4.13
2018-07-24T10:31:18.259Z,3.67
2018-07-24T10:33:46.787Z,2.93
2018-07-24T10:36:15.256Z,3.80
2018-07-24T10:38:43.782Z,3.50
2018-07-24T10:41:12.365Z,3.90
2018-07-24T10:43:40.821Z,3.63
2018-07-24T10:46:08.951Z,3.53
2018-07-24T10:48:37.433Z,3.90
2018-07-24T10:51:05.981Z,3.40
2018-07-24T10:53:34.451Z,3.63
2018-07-24T10:56:02.591Z,3.43
2018-07-24T10:58:31.034Z,3.60
2018-07-24T11:00:59.160Z,2.97
2018-07-24T11:03:27.606Z,3.30
2018-07-24T11:05:55.755Z,3.70
2018-07-24T11:08:24.216Z,3.57
2018-07-24T11:10:52.363Z,3.40
2018-07-24T11:13:20.810Z,2.97
2018-07-24T11:15:49.272Z,2.87
2018-07-24T11:18:17.708Z,2.73
2018-07-24T11:20:46.193Z,4.30
2018-07-24T11:23:14.813Z,2.97
2018-07-24T11:25:43.126Z,3.13
2018-07-24T11:28:11.575Z,3.13
2018-07-24T11:30:40.053Z,2.90
2018-07-24T11:33:08.738Z,2.53
2018-07-24T11:35:37.162Z,3.03
2018-07-24T11:38:05.601Z,3.87
2018-07-24T11:40:34.062Z,3.20
2018-07-24T11:43:02.533Z,3.40
2018-07-24T11:45:31.024Z,3.20
2018-07-24T11:47:59.463Z,3.27
2018-07-24T11:50:28.038Z,3.70
2018-07-24T11:52:56.504Z,3.73
2018-07-24T11:55:25.005Z,3.67
2018-07-24T11:57:53.110Z,3.30
2018-07-24T12:00:21.561Z,4.67
2018-07-24T12:02:50.016Z,3.20
2018-07-24T12:05:18.525Z,3.10
2018-07-24T12:07:47.016Z,3.93
2018-07-24T12:10:15.427Z,4.60
2018-07-24T12:12:43.559Z,3.80
2018-07-24T12:15:12.049Z,4.00
2018-07-24T12:17:40.596Z,3.83
2018-07-24T12:20:08.717Z,4.10
2018-07-24T12:22:37.209Z,4.70
2018-07-24T12:25:05.706Z,4.83
2018-07-24T12:27:34.156Z,4.70
2018-07-24T12:30:02.618Z,3.90
2018-07-24T12:32:31.104Z,3.77
2018-07-24T12:34:59.604Z,4.43
2018-07-24T12:37:28.057Z,4.63
2018-07-24T12:39:56.494Z,3.70
2018-07-24T12:42:24.972Z,4.57
2018-07-24T12:44:53.467Z,4.20
2018-07-24T12:47:21.940Z,4.80
2018-07-24T12:49:50.417Z,4.17
2018-07-24T12:52:18.952Z,4.40
2018-07-24T12:54:47.043Z,4.37
2018-07-24T12:57:15.501Z,3.70
2018-07-24T12:59:43.948Z,4.90
2018-07-24T13:02:12.416Z,4.20
2018-07-24T13:04:40.937Z,4.70
2018-07-24T13:07:09.420Z,4.93
2018-07-24T13:09:37.563Z,5.17
2018-07-24T13:12:06.158Z,4.47
2018-07-24T13:14:34.593Z,6.00
2018-07-24T13:17:03.076Z,4.90
2018-07-24T13:19:31.539Z,4.87
2018-07-24T13:22:00.011Z,4.30
2018-07-24T13:24:28.452Z,4.37
2018-07-24T13:26:56.909Z,5.00
2018-07-24T13:29:25.420Z,4.40
2018-07-24T13:31:54.002Z,8.50
2018-07-24T13:34:22.663Z,5.20
2018-07-24T13:36:50.793Z,4.00
2018-07-24T13:39:19.248Z,4.30
2018-07-24T13:41:47.728Z,4.53
2018-07-24T13:44:15.863Z,4.90
2018-07-24T13:46:44.406Z,4.47
2018-07-24T13:49:12.911Z,4.00
2018-07-24T13:51:42.364Z,4.80
2018-07-24T13:54:10.824Z,4.40
2018-07-24T13:56:39.361Z,3.83
2018-07-24T13:59:07.862Z,4.63
2018-07-24T14:01:36.376Z,5.90
2018-07-24T14:04:04.875Z,5.20
2018-07-24T14:06:33.323Z,4.03
2018-07-24T14:09:01.805Z,4.30
2018-07-24T14:11:30.331Z,4.20
2018-07-24T14:13:58.774Z,4.70
2018-07-24T14:16:26.957Z,4.33
2018-07-24T14:18:55.423Z,4.53
2018-07-24T14:21:23.929Z,4.60
2018-07-24T14:23:52.392Z,4.53
2018-07-24T14:26:20.533Z,4.20
2018-07-24T14:28:49.054Z,4.90
2018-07-24T14:31:17.844Z,3.67
2018-07-24T14:33:46.281Z,4.73
2018-07-24T14:36:14.745Z,4.40
2018-07-24T14:38:43.201Z,5.10
2018-07-24T14:41:11.665Z,4.13
2018-07-24T14:43:39.785Z,5.70
2018-07-24T14:46:08.250Z,4.87
2018-07-24T14:48:36.701Z,4.37
2018-07-24T14:51:05.221Z,4.53
2018-07-24T14:53:33.681Z,5.33
2018-07-24T14:56:02.177Z,4.60
2018-07-24T14:58:30.887Z,4.47
2018-07-24T15:00:59.365Z,4.30
2018-07-24T15:03:27.845Z,4.30
2018-07-24T15:05:56.314Z,3.90
2018-07-24T15:08:24.881Z,5.53
2018-07-24T15:10:53.384Z,5.23
2018-07-24T15:13:21.925Z,6.60
2018-07-24T15:15:50.749Z,4.30
2018-07-24T15:18:19.305Z,5.03
2018-07-24T15:20:47.830Z,4.50
2018-07-24T15:23:15.964Z,4.10
2018-07-24T15:25:44.396Z,4.50
2018-07-24T15:28:12.556Z,4.87
2018-07-24T15:30:40.695Z,4.33
2018-07-24T15:33:09.263Z,3.83
2018-07-24T15:35:37.787Z,4.10
2018-07-24T15:38:06.878Z,5.20
2018-07-24T15:40:35.019Z,4.50
2018-07-24T15:43:03.485Z,4.20
2018-07-24T15:45:32.009Z,4.33
2018-07-24T15:48:00.890Z,4.60
2018-07-24T15:50:29.037Z,4.50
2018-07-24T15:52:57.604Z,4.60
2018-07-24T15:55:26.061Z,4.53
2018-07-24T15:57:54.591Z,4.33
2018-07-24T16:00:23.238Z,5.13
2018-07-24T16:02:51.898Z,4.77
2018-07-24T16:05:20.392Z,4.13
2018-07-24T16:07:50.074Z,4.50
2018-07-24T16:10:19.665Z,4.27
2018-07-24T16:12:47.831Z,8.40
2018-07-24T16:15:16.079Z,4.40
2018-07-24T16:17:44.952Z,4.33
2018-07-24T16:20:13.136Z,4.40
2018-07-24T16:22:41.601Z,4.63
2018-07-24T16:25:10.120Z,6.50
2018-07-24T16:27:38.665Z,5.00
2018-07-24T16:30:07.146Z,5.30
2018-07-24T16:32:35.682Z,5.00
2018-07-24T16:35:04.209Z,4.27
2018-07-24T16:37:32.865Z,4.23
2018-07-24T16:40:01.608Z,4.63
2018-07-24T16:42:30.101Z,4.90
2018-07-24T16:44:58.240Z,4.57
2018-07-24T16:47:26.774Z,4.63
2018-07-24T16:49:55.249Z,5.47
2018-07-24T16:52:24.217Z,4.63
2018-07-24T16:54:52.649Z,4.70
2018-07-24T16:57:21.112Z,4.33
2018-07-24T16:59:49.692Z,5.13
2018-07-24T17:02:18.184Z,5.80
2018-07-24T17:04:46.672Z,4.50
2018-07-24T17:07:15.213Z,4.80
2018-07-24T17:09:43.332Z,4.40
2018-07-24T17:12:12.161Z,5.03
2018-07-24T17:14:40.644Z,4.90
2018-07-24T17:17:09.129Z,4.70
2018-07-24T17:19:37.626Z,4.73
2018-07-24T17:22:05.765Z,4.90
2018-07-24T17:24:34.225Z,5.20
2018-07-24T17:27:02.755Z,4.63
2018-07-24T17:29:31.196Z,4.77
2018-07-24T17:31:59.697Z,5.33
2018-07-24T17:34:27.833Z,4.97
2018-07-24T17:36:56.325Z,4.70
2018-07-24T17:39:24.815Z,5.20
2018-07-24T17:41:53.371Z,5.27
2018-07-24T17:44:21.800Z,4.70
2018-07-24T17:46:50.286Z,4.30
2018-07-24T17:49:18.776Z,5.50
2018-07-24T17:51:47.267Z,6.27
2018-07-24T17:54:15.974Z,5.00
2018-07-24T17:56:45.364Z,5.33
2018-07-24T17:59:13.809Z,5.43
2018-07-24T18:01:42.333Z,5.40
2018-07-24T18:04:10.804Z,5.50
2018-07-24T18:06:39.256Z,6.67
2018-07-24T18:09:10.418Z,5.20
2018-07-24T18:11:39.681Z,6.17
2018-07-24T18:14:08.514Z,5.53
2018-07-24T18:16:37.047Z,5.50
2018-07-24T18:19:05.555Z,6.20
2018-07-24T18:21:34.017Z,5.27
2018-07-24T18:24:02.868Z,5.63
2018-07-24T18:26:31.552Z,5.37
2018-07-24T18:28:59.993Z,5.77
2018-07-24T18:31:28.461Z,5.33
2018-07-24T18:33:56.899Z,4.90
2018-07-24T18:36:25.423Z,5.67
2018-07-24T18:38:53.528Z,5.43
2018-07-24T18:41:22.018Z,5.07
2018-07-24T18:43:50.873Z,5.80
2018-07-24T18:46:19.354Z,6.03
2018-07-24T18:48:47.896Z,7.63
2018-07-24T18:51:16.351Z,5.90
2018-07-24T18:53:44.853Z,5.03
2018-07-24T18:56:13.331Z,5.03
2018-07-24T18:58:41.792Z,4.73
2018-07-24T19:01:09.960Z,5.27
2018-07-24T19:03:38.389Z,6.50
2018-07-24T19:06:06.507Z,6.70
2018-07-24T19:08:34.961Z,7.40
2018-07-24T19:11:03.409Z,7.60
2018-07-24T19:13:31.968Z,7.33
2018-07-24T19:16:00.421Z,9.27
2018-07-24T19:18:29.092Z,10.10
2018-07-24T19:20:57.545Z,10.07
2018-07-24T19:23:26.018Z,8.23
2018-07-24T19:25:54.445Z,7.70
2018-07-24T19:28:22.902Z,7.20
2018-07-24T19:30:51.385Z,9.20
2018-07-24T19:33:19.855Z,9.10
2018-07-24T19:35:48.275Z,8.77
2018-07-24T19:38:16.841Z,7.40
2018-07-24T19:40:45.344Z,9.00
2018-07-24T19:43:13.484Z,9.27
2018-07-24T19:45:41.950Z,10.50
2018-07-24T19:48:10.414Z,9.13
2018-07-24T19:50:38.907Z,9.73
2018-07-24T19:53:07.414Z,8.60
2018-07-24T19:55:35.855Z,10.57
2018-07-24T19:58:04.336Z,10.77
2018-07-24T20:00:32.884Z,9.50
2018-07-24T20:03:01.404Z,9.70
2018-07-24T20:05:29.862Z,11.10
2018-07-24T20:07:58.302Z,11.87
2018-07-24T20:10:26.770Z,11.60
2018-07-24T20:12:55.246Z,10.73
2018-07-24T20:15:23.719Z,10.73
2018-07-24T20:17:52.165Z,11.30
2018-07-24T20:20:20.612Z,12.73
2018-07-24T20:22:49.129Z,12.27
2018-07-24T20:25:17.562Z,11.10
2018-07-24T20:27:46.071Z,10.50
2018-07-24T20:30:14.564Z,10.73
2018-07-24T20:32:43.013Z,10.87
2018-07-24T20:35:11.582Z,11.47
2018-07-24T20:37:39.988Z,12.27
2018-07-24T20:40:08.440Z,11.07
2018-07-24T20:42:37.018Z,11.70
2018-07-24T20:45:05.935Z,11.57
2018-07-24T20:47:34.393Z,11.67
2018-07-24T20:50:02.893Z,12.50
2018-07-24T20:52:31.386Z,11.50
2018-07-24T20:54:59.860Z,13.33
2018-07-24T20:57:28.296Z,12.83
2018-07-24T20:59:56.829Z,14.07
2018-07-24T21:02:25.317Z,11.60
2018-07-24T21:04:53.758Z,11.97
2018-07-24T21:07:22.246Z,18.80
2018-07-24T21:09:50.712Z,13.57
2018-07-24T21:12:19.200Z,14.03
2018-07-24T21:14:47.656Z,13.63
2018-07-24T21:17:15.812Z,15.90
2018-07-24T21:19:44.248Z,14.37
2018-07-24T21:22:12.790Z,17.00
2018-07-24T21:24:41.222Z,14.33
2018-07-24T21:27:09.677Z,38.57
2018-07-24T21:29:38.136Z,16.17
2018-07-24T21:32:06.629Z,16.03
2018-07-24T21:34:35.091Z,16.00
2018-07-24T21:37:03.565Z,15.10
2018-07-24T21:39:32.143Z,13.70
2018-07-24T21:42:00.577Z,10.87
2018-07-24T21:44:29.040Z,11.50
2018-07-24T21:46:57.511Z,12.37
2018-07-24T21:49:25.993Z,11.10
2018-07-24T21:51:54.434Z,12.17
2018-07-24T21:54:22.910Z,9.97
2018-07-24T21:56:51.340Z,10.40
2018-07-24T21:59:19.801Z,10.13
2018-07-24T22:01:48.525Z,9.30
2018-07-24T22:04:16.981Z,10.37
2018-07-24T22:06:45.418Z,9.10
2018-07-24T22:09:13.871Z,11.10
2018-07-24T22:11:42.343Z,10.00
2018-07-24T22:14:10.851Z,9.13
2018-07-24T22:16:39.309Z,10.00
2018-07-24T22:19:07.766Z,9.40
2018-07-24T22:21:36.217Z,9.20
2018-07-24T22:24:04.693Z,9.77
2018-07-24T22:26:33.248Z,9.53
2018-07-24T22:29:01.687Z,9.37
2018-07-24T22:31:30.189Z,10.10
2018-07-24T22:33:58.648Z,10.93
2018-07-24T22:36:27.136Z,10.23
2018-07-24T22:38:55.572Z,9.67
2018-07-24T22:41:24.013Z,10.00
2018-07-24T22:43:52.821Z,11.27
2018-07-24T22:46:21.270Z,9.47
2018-07-24T22:48:49.787Z,9.10
2018-07-24T22:51:18.262Z,9.10
2018-07-24T22:53:46.722Z,9.37
2018-07-24T22:56:14.815Z,9.23
2018-07-24T22:58:43.258Z,8.83
2018-07-24T23:01:11.676Z,10.63
2018-07-24T23:03:40.139Z,15.50
2018-07-24T23:06:08.251Z,10.60
2018-07-24T23:08:36.761Z,11.87
2018-07-24T23:11:05.206Z,11.70
2018-07-24T23:13:33.725Z,10.13
2018-07-24T23:16:02.161Z,9.50
2018-07-24T23:18:30.617Z,10.27
2018-07-24T23:20:59.053Z,8.73
2018-07-24T23:23:27.504Z,8.93
2018-07-24T23:25:55.957Z,8.57
2018-07-24T23:28:24.424Z,8.60
2018-07-24T23:30:52.893Z,8.60
2018-07-24T23:33:21.349Z,9.07
2018-07-24T23:35:49.801Z,8.80
2018-07-24T23:38:18.262Z,9.83
2018-07-24T23:40:46.761Z,9.00
2018-07-24T23:43:15.264Z,8.60
2018-07-24T23:45:43.395Z,9.40
2018-07-24T23:48:11.853Z,10.47
2018-07-24T23:50:40.309Z,9.50
2018-07-24T23:53:08.768Z,9.10
2018-07-24T23:55:37.241Z,8.83
2018-07-24T23:58:06.309Z,9.33
